Time;durP1;ratioP1;P1;durP2;ratioP2;P2;SDS_P1;SDS_P2;PMS_P1;PMS_P2;Temp;Humidity;BMP_temperature;BMP_pressure;BME280_temperature;BME280_humidity;BME280_pressure;Samples;Min_cycle;Max_cycle;Signal;HPM_P1;HPM_P2
2022/10/20 00:01:27;;;;;;;25.70;19.90;;;;;;;4.28;100.00;99974.69;105777;1294;62737;-74
2022/10/20 00:03:55;;;;;;;22.70;19.00;;;;;;;4.23;100.00;99976.58;106032;1288;58437;-73
2022/10/20 00:06:27;;;;;;;35.00;25.70;;;;;;;4.17;100.00;99980.77;106068;1288;58128;-74
2022/10/20 00:08:56;;;;;;;29.20;22.20;;;;;;;4.11;100.00;99978.80;106082;1282;66223;-75
2022/10/20 00:11:24;;;;;;;27.80;20.90;;;;;;;4.07;100.00;99980.67;106041;1282;59971;-74
2022/10/20 00:13:52;;;;;;;32.30;24.20;;;;;;;4.03;100.00;99983.40;106052;1288;64931;-74
2022/10/20 00:16:21;;;;;;;29.30;22.00;;;;;;;3.97;100.00;99979.34;106035;1288;57974;-74
2022/10/20 00:18:48;;;;;;;24.90;20.40;;;;;;;3.90;100.00;99975.80;106062;1287;58431;-73
2022/10/20 00:21:17;;;;;;;24.70;20.20;;;;;;;3.85;100.00;99972.58;106067;1288;66185;-73
2022/10/20 00:23:44;;;;;;;23.50;19.90;;;;;;;3.81;100.00;99976.55;106077;1288;60896;-74
2022/10/20 00:26:20;;;;;;;24.00;19.00;;;;;;;3.76;100.00;99977.89;106049;1280;64896;-74
2022/10/20 00:28:48;;;;;;;29.10;21.30;;;;;;;3.72;100.00;99982.19;106075;1288;58463;-73
2022/10/20 00:31:15;;;;;;;29.50;23.50;;;;;;;3.68;100.00;99984.58;106063;1288;58315;-74
2022/10/20 00:33:42;;;;;;;29.90;23.20;;;;;;;3.64;100.00;99986.78;105853;1290;65185;-74
2022/10/20 00:36:12;;;;;;;27.20;22.80;;;;;;;3.60;100.00;99982.14;106061;1288;60015;-73
2022/10/20 00:38:38;;;;;;;;;;;;;;;3.52;100.00;99979.48;106062;1281;65128;-74
2022/10/20 00:41:05;;;;;;;26.60;21.00;;;;;;;3.44;100.00;99983.53;106062;1275;58958;-72
2022/10/20 00:43:41;;;;;;;26.30;22.90;;;;;;;3.38;100.00;99982.80;106054;1288;59034;-72
2022/10/20 00:46:11;;;;;;;26.90;20.30;;;;;;;3.34;100.00;99982.35;106069;1288;67029;-74
2022/10/20 00:48:39;;;;;;;28.50;24.70;;;;;;;3.32;100.00;99982.93;105301;1288;1002497;-74
2022/10/20 00:51:06;;;;;;;24.10;21.50;;;;;;;3.30;100.00;99978.73;106023;1288;73805;-74
2022/10/20 00:53:33;;;;;;;29.30;23.80;;;;;;;3.29;100.00;99975.08;105710;1294;58948;-74
2022/10/20 00:56:00;;;;;;;29.40;23.30;;;;;;;3.27;100.00;99972.14;106060;1288;59884;-74
2022/10/20 00:58:27;;;;;;;25.70;21.70;;;;;;;3.26;100.00;99969.86;106058;1287;65760;-74
2022/10/20 01:00:56;;;;;;;29.80;24.70;;;;;;;3.25;100.00;99970.23;106040;1287;60079;-73
2022/10/20 01:03:29;;;;;;;24.40;20.70;;;;;;;3.25;100.00;99968.67;106039;1288;72102;-73
2022/10/20 01:05:55;;;;;;;25.20;21.30;;;;;;;3.23;100.00;99967.47;106071;1288;59014;-74
2022/10/20 01:08:22;;;;;;;24.80;21.00;;;;;;;3.22;100.00;99974.52;106068;1280;58783;-74
2022/10/20 01:11:04;;;;;;;27.30;22.60;;;;;;;3.20;100.00;99981.60;106059;1286;65989;-74
2022/10/20 01:14:00;;;;;;;28.90;22.90;;;;;;;3.17;100.00;99979.02;105304;1286;1002425;-74
2022/10/20 01:16:38;;;;;;;28.40;23.20;;;;;;;3.14;100.00;99977.33;106028;1287;64028;-73
2022/10/20 01:19:16;;;;;;;30.40;24.70;;;;;;;3.11;100.00;99980.21;106045;1280;59043;-74
2022/10/20 01:22:17;;;;;;;29.00;23.70;;;;;;;3.07;100.00;99976.77;106078;1288;59055;-74
2022/10/20 01:25:02;;;;;;;30.50;25.70;;;;;;;3.03;100.00;99977.89;106055;1288;66981;-74
2022/10/20 01:27:44;;;;;;;30.50;25.60;;;;;;;3.00;100.00;99977.79;106049;1288;60903;-74
2022/10/20 01:30:16;;;;;;;30.30;24.80;;;;;;;3.00;100.00;99980.42;106030;1288;64031;-73
2022/10/20 01:33:13;;;;;;;31.40;26.20;;;;;;;3.01;100.00;99979.38;106040;1285;58962;-74
2022/10/20 01:35:58;;;;;;;31.00;24.80;;;;;;;3.01;100.00;99974.08;105503;1298;60492;-73
2022/10/20 01:38:28;;;;;;;38.60;28.70;;;;;;;3.02;100.00;99973.55;105540;1290;66612;-74
2022/10/20 01:41:19;;;;;;;37.00;30.30;;;;;;;3.03;100.00;99974.40;105500;1296;59955;-73
2022/10/20 01:43:48;;;;;;;32.90;27.30;;;;;;;3.03;100.00;99974.92;105530;1294;64806;-73
2022/10/20 01:46:18;;;;;;;33.10;26.40;;;;;;;3.03;100.00;99978.26;105389;1296;59048;-72
2022/10/20 01:48:45;;;;;;;28.80;24.00;;;;;;;3.01;100.00;99977.25;105513;1289;58942;-73
2022/10/20 01:51:11;;;;;;;27.50;24.50;;;;;;;2.95;100.00;99980.35;105297;1300;67030;-73
2022/10/20 01:53:38;;;;;;;30.10;24.80;;;;;;;2.87;100.00;99985.23;105522;1296;61076;-72
2022/10/20 01:56:05;;;;;;;28.80;25.50;;;;;;;2.79;100.00;99985.73;104795;1288;1002166;-74
2022/10/20 01:58:53;;;;;;;32.10;25.80;;;;;;;2.71;100.00;99986.78;105512;1298;58920;-74
2022/10/20 02:01:53;;;;;;;33.20;28.10;;;;;;;2.66;100.00;99985.13;105486;1295;58874;-74
2022/10/20 02:04:29;;;;;;;33.20;26.60;;;;;;;2.64;100.00;99983.58;105524;1297;67076;-73
2022/10/20 02:07:05;;;;;;;33.10;28.80;;;;;;;2.64;100.00;99979.55;105507;1290;60728;-73
2022/10/20 02:09:40;;;;;;;38.80;30.50;;;;;;;2.65;100.00;99976.55;105501;1298;65022;-74
2022/10/20 02:12:10;;;;;;;33.10;28.90;;;;;;;2.68;100.00;99980.71;105517;1294;59000;-73
2022/10/20 02:14:37;;;;;;;33.70;28.40;;;;;;;2.70;100.00;99979.63;106071;1288;58884;-72
2022/10/20 02:17:07;;;;;;;36.00;30.80;;;;;;;2.71;100.00;99979.77;106072;1286;65993;-73
2022/10/20 02:19:38;;;;;;;38.80;32.10;;;;;;;2.72;100.00;99977.45;106054;1288;60077;-73
2022/10/20 02:22:06;;;;;;;42.00;32.80;;;;;;;2.74;100.00;99975.50;106020;1288;64009;-74
2022/10/20 02:24:36;;;;;;;43.70;37.30;;;;;;;2.75;100.00;99979.52;105308;1288;1002453;-73
2022/10/20 02:27:16;;;;;;;50.60;40.20;;;;;;;2.76;100.00;99976.33;106054;1288;58936;-73
2022/10/20 02:30:03;;;;;;;47.40;42.20;;;;;;;2.76;100.00;99973.00;105769;1291;67320;-73
2022/10/20 02:32:32;;;;;;;49.80;41.70;;;;;;;2.76;100.00;99972.11;105848;1289;60039;-73
2022/10/20 02:34:59;;;;;;;47.60;41.70;;;;;;;2.76;100.00;99972.11;106042;1280;65039;-74
2022/10/20 02:37:25;;;;;;;50.20;43.70;;;;;;;2.74;100.00;99971.28;106044;1288;59155;-73
2022/10/20 02:39:52;;;;;;;51.00;41.50;;;;;;;2.70;100.00;99976.45;106061;1288;58954;-73
2022/10/20 02:42:19;;;;;;;42.80;38.20;;;;;;;2.68;100.00;99977.91;106047;1288;66971;-74
2022/10/20 02:44:45;;;;;;;48.00;38.90;;;;;;;2.66;100.00;99983.38;106056;1288;60723;-74
2022/10/20 02:47:12;;;;;;;41.70;36.80;;;;;;;2.65;100.00;99986.71;106049;1281;64978;-74
2022/10/20 02:49:38;;;;;;;40.40;35.80;;;;;;;2.62;100.00;99986.61;105748;1284;58916;-73
2022/10/20 02:52:05;;;;;;;39.90;35.50;;;;;;;2.58;100.00;99985.44;106052;1288;58845;-74
2022/10/20 02:54:31;;;;;;;41.70;35.30;;;;;;;2.55;100.00;99984.80;106077;1288;67004;-73
2022/10/20 02:56:58;;;;;;;44.10;35.90;;;;;;;2.52;100.00;99985.03;106063;1288;60682;-74
2022/10/20 02:59:25;;;;;;;42.20;34.50;;;;;;;2.51;100.00;99986.11;106040;1281;64007;-74
2022/10/20 03:01:51;;;;;;;45.40;36.00;;;;;;;2.48;100.00;99988.63;106069;1288;58988;-73
2022/10/20 03:04:18;;;;;;;44.60;36.30;;;;;;;2.44;100.00;99991.67;106064;1280;58793;-74
2022/10/20 03:06:44;;;;;;;44.50;34.80;;;;;;;2.40;100.00;99998.23;106062;1280;67030;-73
2022/10/20 03:09:11;;;;;;;40.80;35.00;;;;;;;2.37;100.00;100001.78;106062;1288;60713;-74
2022/10/20 03:11:38;;;;;;;42.00;34.10;;;;;;;2.37;100.00;100002.30;106053;1288;62574;-72
2022/10/20 03:14:04;;;;;;;37.80;31.90;;;;;;;2.38;100.00;100002.11;106068;1288;58953;-74
2022/10/20 03:16:31;;;;;;;43.30;34.40;;;;;;;2.39;100.00;100004.55;106091;1280;58987;-73
2022/10/20 03:18:57;;;;;;;42.10;35.60;;;;;;;2.40;100.00;100009.80;106052;1288;67085;-74
2022/10/20 03:21:24;;;;;;;43.00;34.40;;;;;;;2.43;100.00;100013.26;105752;1284;59731;-74
2022/10/20 03:23:51;;;;;;;38.20;33.80;;;;;;;2.46;100.00;100018.98;106062;1288;64032;-74
2022/10/20 03:26:17;;;;;;;43.40;35.40;;;;;;;2.50;100.00;100016.46;105863;1292;58907;-73
2022/10/20 03:28:44;;;;;;;45.40;37.90;;;;;;;2.54;100.00;100018.84;105980;1286;58886;-73
2022/10/20 03:31:11;;;;;;;46.20;39.90;;;;;;;2.58;100.00;100019.47;105989;1288;67036;-73
2022/10/20 03:33:37;;;;;;;56.00;43.80;;;;;;;2.63;100.00;100017.45;105761;1291;67717;-74
2022/10/20 03:36:04;;;;;;;80.50;53.00;;;;;;;2.68;100.00;100022.28;105980;1287;65002;-73
2022/10/20 03:38:31;;;;;;;81.90;55.10;;;;;;;2.72;100.00;100024.48;105977;1289;58929;-74
2022/10/20 03:40:57;;;;;;;66.70;46.80;;;;;;;2.75;100.00;100021.27;105982;1283;58837;-74
2022/10/20 03:43:24;;;;;;;58.10;42.20;;;;;;;2.78;100.00;100020.69;105831;1291;67059;-74
2022/10/20 03:46:00;;;;;;;70.50;46.10;;;;;;;2.80;100.00;100020.31;105954;1289;60029;-73
2022/10/20 03:48:27;;;;;;;71.20;48.60;;;;;;;2.81;100.00;100021.35;105946;1289;65014;-73
2022/10/20 03:50:53;;;;;;;72.10;48.60;;;;;;;2.83;100.00;100020.42;105757;1292;59242;-74
2022/10/20 03:53:20;;;;;;;74.80;50.30;;;;;;;2.86;100.00;100020.73;105976;1287;59003;-74
2022/10/20 03:55:46;;;;;;;63.30;44.10;;;;;;;2.90;100.00;100017.48;105982;1291;66990;-74
2022/10/20 03:58:13;;;;;;;82.70;40.10;;;;;;;2.94;100.00;100017.05;105994;1283;60560;-74
2022/10/20 04:00:39;;;;;;;83.50;38.50;;;;;;;2.99;100.00;100018.54;105956;1283;64737;-74
2022/10/20 04:03:06;;;;;;;104.20;32.80;;;;;;;3.01;100.00;100017.11;105972;1297;58982;-74
2022/10/20 04:05:33;;;;;;;98.20;30.60;;;;;;;2.99;100.00;100012.92;105957;1289;58902;-73
2022/10/20 04:07:59;;;;;;;104.20;28.20;;;;;;;2.97;100.00;100015.95;105992;1283;66154;-74
2022/10/20 04:10:26;;;;;;;108.60;30.80;;;;;;;2.95;100.00;100010.89;105960;1290;60023;-74
2022/10/20 04:12:52;;;;;;;94.10;30.10;;;;;;;2.95;100.00;100011.59;105962;1283;65072;-72
2022/10/20 04:15:19;;;;;;;93.10;30.00;;;;;;;2.94;100.00;100005.81;105971;1281;58996;-73
2022/10/20 04:17:46;;;;;;;117.60;30.90;;;;;;;2.94;100.00;100005.80;105831;1276;58924;-74
2022/10/20 04:20:12;;;;;;;88.70;31.10;;;;;;;2.96;100.00;100006.65;105969;1284;65957;-72
2022/10/20 04:22:39;;;;;;;85.30;31.10;;;;;;;2.97;100.00;100006.45;105973;1291;60077;-73
2022/10/20 04:25:06;;;;;;;77.10;30.00;;;;;;;2.95;100.00;100005.28;105968;1291;65011;-73
2022/10/20 04:27:33;;;;;;;87.40;29.40;;;;;;;2.90;100.00;100002.91;106021;1291;58978;-73
2022/10/20 04:30:02;;;;;;;76.60;28.80;;;;;;;2.85;100.00;100004.23;106087;1288;58872;-73
2022/10/20 04:32:28;;;;;;;91.50;29.60;;;;;;;2.83;100.00;100001.99;106079;1288;66018;-73
2022/10/20 04:34:55;;;;;;;80.60;27.80;;;;;;;2.80;100.00;100000.29;106063;1288;61123;-73
2022/10/20 04:37:22;;;;;;;57.70;27.70;;;;;;;2.81;100.00;99999.94;106056;1280;63995;-73
2022/10/20 04:39:52;;;;;;;71.00;27.40;;;;;;;2.84;100.00;99998.98;106061;1288;58871;-73
2022/10/20 04:42:18;;;;;;;66.00;30.50;;;;;;;2.85;100.00;99997.55;106049;1288;58835;-73
2022/10/20 04:44:45;;;;;;;89.30;31.30;;;;;;;2.85;100.00;99996.86;106071;1286;66872;-73
2022/10/20 04:47:12;;;;;;;104.30;35.50;;;;;;;2.87;100.00;99995.27;106056;1288;60998;-74
2022/10/20 04:49:39;;;;;;;120.00;37.80;;;;;;;2.88;100.00;99996.30;106064;1288;65010;-73
2022/10/20 04:52:06;;;;;;;83.40;37.10;;;;;;;2.89;100.00;99994.86;106079;1288;58887;-74
2022/10/20 04:54:33;;;;;;;69.60;36.90;;;;;;;2.91;100.00;99995.01;106061;1280;59026;-74
2022/10/20 04:56:59;;;;;;;124.10;37.30;;;;;;;2.91;100.00;99996.56;105720;1293;66979;-74
2022/10/20 04:59:26;;;;;;;92.10;35.60;;;;;;;2.91;100.00;99996.23;106059;1282;60976;-73
2022/10/20 05:01:52;;;;;;;117.20;36.30;;;;;;;2.89;100.00;99997.13;106025;1289;65017;-73
2022/10/20 05:04:20;;;;;;;79.50;35.60;;;;;;;2.89;100.00;99996.95;106042;1287;58840;-74
2022/10/20 05:06:48;;;;;;;87.70;35.70;;;;;;;2.91;100.00;99997.61;106069;1280;58990;-74
2022/10/20 05:09:15;;;;;;;113.70;33.10;;;;;;;2.95;100.00;99999.31;106069;1287;66312;-74
2022/10/20 05:11:42;;;;;;;78.00;32.60;;;;;;;2.96;100.00;100002.27;105773;1292;60046;-74
2022/10/20 05:14:09;;;;;;;91.10;33.60;;;;;;;2.97;100.00;100007.16;106030;1280;65087;-74
2022/10/20 05:16:36;;;;;;;65.60;35.90;;;;;;;2.98;100.00;100011.00;105319;1281;1002098;-74
2022/10/20 05:19:02;;;;;;;83.20;33.00;;;;;;;3.00;100.00;100014.31;106088;1288;58864;-74
2022/10/20 05:21:30;;;;;;;77.30;33.10;;;;;;;3.00;100.00;100013.61;105751;1292;65729;-74
2022/10/20 05:23:59;;;;;;;93.50;31.80;;;;;;;2.99;100.00;100014.51;105752;1294;58995;-74
2022/10/20 05:26:28;;;;;;;105.70;32.30;;;;;;;3.01;100.00;100018.31;106047;1280;64940;-73
2022/10/20 05:28:55;;;;;;;81.30;29.10;;;;;;;3.03;100.00;100023.72;106068;1288;58932;-74
2022/10/20 05:31:22;;;;;;;61.80;28.60;;;;;;;3.03;100.00;100019.34;106047;1288;58948;-73
2022/10/20 05:33:52;;;;;;;109.80;46.20;;;;;;;3.04;100.00;100017.89;105944;1291;67006;-74
2022/10/20 05:36:21;;;;;;;115.30;34.20;;;;;;;3.06;100.00;100023.14;106079;1288;60004;-73
2022/10/20 05:38:51;;;;;;;68.00;29.60;;;;;;;3.06;100.00;100027.86;105918;1291;63941;-80
2022/10/20 05:41:20;;;;;;;73.80;24.20;;;;;;;3.06;100.00;100032.79;105911;1291;58921;-74
2022/10/20 05:43:52;;;;;;;151.20;27.70;;;;;;;3.07;100.00;100033.98;106071;1280;58989;-74
2022/10/20 05:46:19;;;;;;;128.20;24.30;;;;;;;3.11;100.00;100032.52;106083;1286;67054;-74
2022/10/20 05:48:46;;;;;;;116.50;22.60;;;;;;;3.15;100.00;100032.62;106076;1280;61030;-74
2022/10/20 05:51:15;;;;;;;99.00;23.40;;;;;;;3.18;100.00;100034.48;105848;1291;64864;-74
2022/10/20 05:53:43;;;;;;;70.70;23.10;;;;;;;3.21;100.00;100033.55;106053;1288;58804;-74
2022/10/20 05:56:13;;;;;;;60.00;23.70;;;;;;;3.25;100.00;100033.27;106055;1288;58894;-74
2022/10/20 05:58:40;;;;;;;54.10;24.40;;;;;;;3.31;100.00;100032.81;106071;1288;67027;-74
2022/10/20 06:01:15;;;;;;;58.90;23.00;;;;;;;3.35;100.00;100032.02;106074;1290;61022;-74
2022/10/20 06:03:47;;;;;;;80.40;24.40;;;;;;;3.38;100.00;100030.21;105714;1294;63734;-75
2022/10/20 06:06:14;;;;;;;60.40;24.10;;;;;;;3.41;100.00;100034.20;106073;1288;58919;-73
2022/10/20 06:08:41;;;;;;;35.50;23.50;;;;;;;3.44;100.00;100037.80;106060;1287;58911;-74
2022/10/20 06:11:10;;;;;;;36.50;24.90;;;;;;;3.47;100.00;100041.08;105779;1294;66041;-74
2022/10/20 06:13:37;;;;;;;33.10;24.00;;;;;;;3.54;100.00;100043.95;106068;1288;66915;-74
2022/10/20 06:16:06;;;;;;;36.40;24.90;;;;;;;3.61;100.00;100045.37;105757;1286;65046;-74
2022/10/20 06:18:33;;;;;;;37.80;24.90;;;;;;;3.68;100.00;100045.04;105759;1294;59003;-75
2022/10/20 06:21:02;;;;;;;31.50;21.90;;;;;;;3.76;100.00;100048.73;106078;1288;58996;-75
2022/10/20 06:23:28;;;;;;;37.70;21.90;;;;;;;3.85;100.00;100049.23;106059;1288;66988;-75
2022/10/20 06:26:04;;;;;;;33.60;21.80;;;;;;;3.92;100.00;100046.60;106076;1288;58984;-75
2022/10/20 06:28:33;;;;;;;46.60;21.50;;;;;;;3.94;100.00;100047.60;106083;1288;64580;-73
2022/10/20 06:31:00;;;;;;;39.50;22.10;;;;;;;3.95;100.00;100049.34;106043;1294;59177;-73
2022/10/20 06:33:28;;;;;;;29.10;20.30;;;;;;;3.97;100.00;100051.23;106075;1280;59001;-74
2022/10/20 06:36:00;;;;;;;27.60;21.90;;;;;;;4.00;100.00;100051.52;106077;1288;66031;-74
2022/10/20 06:38:28;;;;;;;29.90;23.70;;;;;;;4.06;100.00;100051.40;105775;1294;60267;-74
2022/10/20 06:40:55;;;;;;;41.20;35.70;;;;;;;4.14;100.00;100057.70;105965;1287;139066;-74
2022/10/20 06:43:22;;;;;;;30.50;26.60;;;;;;;4.19;100.00;100059.34;106068;1288;58932;-74
2022/10/20 06:46:04;;;;;;;29.60;23.60;;;;;;;4.27;100.00;100059.70;105780;1292;58901;-74
2022/10/20 06:48:31;;;;;;;32.10;25.50;;;;;;;4.35;100.00;100052.80;106073;1288;67208;-74
2022/10/20 06:51:10;;;;;;;33.00;24.20;;;;;;;4.47;100.00;100049.52;106079;1288;60006;-74
2022/10/20 06:53:38;;;;;;;36.10;22.70;;;;;;;4.66;100.00;100049.74;106081;1280;64072;-74
2022/10/20 06:56:09;;;;;;;30.00;24.20;;;;;;;4.81;100.00;100055.85;106048;1288;58917;-73
2022/10/20 06:58:37;;;;;;;28.30;21.00;;;;;;;4.96;100.00;100054.77;106087;1293;58919;-74
2022/10/20 07:01:07;;;;;;;24.40;20.80;;;;;;;5.10;100.00;100050.67;106081;1280;66058;-74
2022/10/20 07:03:35;;;;;;;26.40;21.10;;;;;;;5.27;100.00;100049.14;105854;1288;60053;-74
2022/10/20 07:06:04;;;;;;;32.20;21.70;;;;;;;5.41;100.00;100049.09;106067;1286;64148;-73
2022/10/20 07:08:32;;;;;;;28.70;22.10;;;;;;;5.53;100.00;100045.92;105828;1291;59170;-74
2022/10/20 07:11:02;;;;;;;25.20;20.10;;;;;;;5.65;100.00;100044.52;106057;1287;59393;-74
2022/10/20 07:13:29;;;;;;;22.40;18.90;;;;;;;5.72;100.00;100043.59;106049;1288;66982;-74
2022/10/20 07:15:57;;;;;;;22.80;19.30;;;;;;;5.77;100.00;100043.80;106042;1288;60995;-74
2022/10/20 07:18:25;;;;;;;24.30;20.30;;;;;;;5.84;100.00;100044.98;106080;1288;64800;-74
2022/10/20 07:21:00;;;;;;;22.20;19.80;;;;;;;5.90;100.00;100040.73;106058;1290;58960;-74
2022/10/20 07:23:29;;;;;;;22.30;18.90;;;;;;;5.94;100.00;100038.55;106080;1287;58933;-73
2022/10/20 07:26:05;;;;;;;24.60;19.60;;;;;;;5.94;100.00;100038.36;105846;1292;67059;-73
2022/10/20 07:28:33;;;;;;;21.20;18.90;;;;;;;5.93;100.00;100037.32;106061;1280;59963;-74
2022/10/20 07:31:05;;;;;;;20.60;17.50;;;;;;;5.92;100.00;100035.22;106077;1288;65337;-75
2022/10/20 07:33:32;;;;;;;21.80;17.30;;;;;;;5.95;100.00;100039.03;106066;1288;58949;-74
2022/10/20 07:35:59;;;;;;;20.80;16.90;;;;;;;5.97;100.00;100037.55;106049;1288;58891;-75
2022/10/20 07:38:26;;;;;;;20.40;16.50;;;;;;;6.01;100.00;100039.39;106070;1288;65939;-74
2022/10/20 07:40:52;;;;;;;21.50;17.50;;;;;;;6.04;100.00;100039.11;106069;1288;59667;-74
2022/10/20 07:43:19;;;;;;;20.80;18.00;;;;;;;6.08;100.00;100037.21;106051;1288;63639;-74
2022/10/20 07:45:45;;;;;;;22.60;18.60;;;;;;;6.16;100.00;100039.43;106052;1296;58821;-74
2022/10/20 07:48:12;;;;;;;21.90;17.50;;;;;;;6.24;100.00;100040.41;106061;1288;58860;-74
2022/10/20 07:50:39;;;;;;;18.50;15.50;;;;;;;6.33;100.00;100039.40;106054;1288;66084;-74
2022/10/20 07:53:06;;;;;;;19.10;16.40;;;;;;;6.44;100.00;100040.48;106084;1287;58846;-74
2022/10/20 07:55:33;;;;;;;20.90;17.10;;;;;;;6.50;100.00;100038.16;105764;1295;65056;-74
2022/10/20 07:57:59;;;;;;;17.40;15.50;;;;;;;6.58;100.00;100032.77;106040;1288;58950;-75
2022/10/20 08:00:26;;;;;;;19.60;15.20;;;;;;;6.65;100.00;100030.23;106058;1288;58916;-73
2022/10/20 08:02:53;;;;;;;17.10;15.30;;;;;;;6.67;100.00;100028.58;106066;1288;67096;-75
2022/10/20 08:05:19;;;;;;;18.40;15.00;;;;;;;6.72;100.00;100027.50;106074;1287;60168;-74
2022/10/20 08:07:46;;;;;;;18.70;15.60;;;;;;;6.82;100.00;100026.45;106053;1288;64955;-75
2022/10/20 08:10:12;;;;;;;21.20;14.80;;;;;;;6.90;100.00;100026.18;106032;1288;59952;-74
2022/10/20 08:12:39;;;;;;;16.00;14.20;;;;;;;6.99;100.00;100024.82;106064;1287;58860;-74
2022/10/20 08:22:39;;;;;;;18.30;14.40;;;;;;;7.18;100.00;100018.84;106065;1288;63720;-75
2022/10/20 08:25:08;;;;;;;16.20;14.30;;;;;;;7.27;100.00;100024.51;106064;1288;59200;-74
2022/10/20 08:27:34;;;;;;;16.60;14.00;;;;;;;7.34;100.00;100023.55;106070;1288;58900;-74
2022/10/20 08:30:02;;;;;;;19.90;16.80;;;;;;;7.36;100.00;100020.81;106017;1287;67147;-75
2022/10/20 08:32:28;;;;;;;20.70;15.40;;;;;;;7.41;100.00;100020.95;106047;1287;59916;-74
2022/10/20 08:34:55;;;;;;;19.50;17.10;;;;;;;7.51;100.00;100017.22;106036;1286;64811;-75
2022/10/20 08:37:21;;;;;;;19.70;17.50;;;;;;;7.61;100.00;100010.32;105778;1300;58923;-75
2022/10/20 08:39:48;;;;;;;19.60;17.50;;;;;;;7.67;100.00;100006.70;106043;1294;59024;-75
2022/10/20 08:42:16;;;;;;;20.90;17.30;;;;;;;7.68;100.00;100004.20;106071;1288;67031;-75
2022/10/20 08:44:45;;;;;;;19.10;17.20;;;;;;;7.69;100.00;100000.98;105922;1288;69327;-75
2022/10/20 08:47:35;;;;;;;20.90;18.40;;;;;;;7.68;100.00;99997.29;106038;1286;64004;-75
2022/10/20 08:50:05;;;;;;;21.20;16.10;;;;;;;7.74;100.00;99995.84;105929;1296;58876;-75
2022/10/20 08:52:32;;;;;;;19.90;17.80;;;;;;;7.78;100.00;99994.41;106045;1281;59061;-75
2022/10/20 08:54:59;;;;;;;19.70;17.50;;;;;;;7.84;100.00;99991.56;106031;1288;65952;-75
2022/10/20 08:57:30;;;;;;;19.60;17.30;;;;;;;7.88;100.00;99990.48;105731;1292;59994;-76
2022/10/20 09:00:11;;;;;;;20.50;17.50;;;;;;;7.87;100.00;99993.00;106036;1294;65139;-75
2022/10/20 09:02:38;;;;;;;19.20;16.10;;;;;;;7.88;100.00;99990.52;106054;1294;59257;-75
2022/10/20 09:05:07;;;;;;;17.20;15.20;;;;;;;7.93;100.00;99991.36;106072;1281;58892;-75
2022/10/20 09:07:36;;;;;;;18.80;13.80;;;;;;;7.96;100.00;99986.14;106081;1281;66371;-75
2022/10/20 09:10:24;;;;;;;18.00;14.10;;;;;;;8.00;100.00;99984.02;106092;1288;59051;-75
2022/10/20 09:12:51;;;;;;;15.40;13.80;;;;;;;8.09;100.00;99984.36;106061;1296;65015;-75
2022/10/20 09:15:20;;;;;;;15.70;13.10;;;;;;;8.19;100.00;99986.61;106053;1281;58994;-75
2022/10/20 09:18:00;;;;;;;12.70;11.40;;;;;;;8.31;100.00;99983.61;106079;1288;58876;-75
2022/10/20 09:20:35;;;;;;;13.10;11.20;;;;;;;8.43;100.00;99980.66;106086;1294;64330;-75
2022/10/20 09:23:02;;;;;;;14.00;11.20;;;;;;;8.52;100.00;99980.27;106059;1290;59706;-75
2022/10/20 09:25:29;;;;;;;12.40;10.70;;;;;;;8.58;100.00;99981.95;106030;1289;65005;-75
2022/10/20 09:27:56;;;;;;;10.60;9.50;;;;;;;8.67;100.00;99983.89;105778;1294;58969;-75
2022/10/20 09:30:33;;;;;;;10.50;9.50;;;;;;;8.78;100.00;99984.50;105800;1286;59225;-72
2022/10/20 09:33:18;;;;;;;13.00;9.10;;;;;;;8.82;100.00;99983.61;106069;1288;66999;-76
2022/10/20 09:35:47;;;;;;;9.80;8.80;;;;;;;8.89;100.00;99982.58;106068;1288;61452;-76
2022/10/20 09:38:21;;;;;;;8.70;7.80;;;;;;;8.95;100.00;99979.63;106057;1288;64010;-75
2022/10/20 09:41:32;;;;;;;8.90;7.00;;;;;;;9.02;100.00;99976.48;106048;1288;59192;-75
2022/10/20 09:44:04;;;;;;;6.00;5.40;;;;;;;9.12;100.00;99976.77;106073;1288;58882;-73
2022/10/20 09:46:37;;;;;;;7.30;5.10;;;;;;;9.22;100.00;99975.08;106091;1288;67044;-75
2022/10/20 09:49:06;;;;;;;7.10;5.30;;;;;;;9.29;100.00;99967.30;105728;1286;59003;-74
2022/10/20 09:51:33;;;;;;;6.60;5.90;;;;;;;9.40;100.00;99963.79;106114;1281;65158;-76
2022/10/20 09:54:07;;;;;;;4.40;3.50;;;;;;;9.51;100.00;99963.27;106094;1287;59182;-77
2022/10/20 09:56:40;;;;;;;4.10;3.40;;;;;;;9.53;100.00;99965.11;105981;1286;58889;-75
2022/10/20 09:59:21;;;;;;;3.70;2.50;;;;;;;9.54;100.00;99966.48;106049;1288;67263;-74
2022/10/20 10:02:00;;;;;;;4.00;3.30;;;;;;;9.55;100.00;99964.65;106055;1288;61019;-74
2022/10/20 10:04:34;;;;;;;5.10;3.10;;;;;;;9.60;100.00;99964.23;105756;1288;65140;-72
2022/10/20 10:07:03;;;;;;;3.50;2.80;;;;;;;9.71;100.00;99965.53;106058;1288;59228;-74
2022/10/20 10:09:36;;;;;;;3.10;2.40;;;;;;;9.79;100.00;99963.34;106073;1286;58933;-74
2022/10/20 10:12:12;;;;;;;6.70;3.10;;;;;;;9.84;100.00;99959.91;106069;1288;66143;-75
2022/10/20 10:14:51;;;;;;;3.00;2.30;;;;;;;9.93;100.00;99961.09;105887;1291;60044;-75
2022/10/20 10:17:32;;;;;;;3.00;2.30;;;;;;;10.01;100.00;99958.73;106061;1287;64311;-74
2022/10/20 10:20:00;;;;;;;2.80;2.00;;;;;;;10.10;100.00;99957.39;106057;1286;59035;-75
2022/10/20 10:22:27;;;;;;;2.70;1.80;;;;;;;10.17;100.00;99956.71;105792;1298;59081;-74
2022/10/20 10:24:54;;;;;;;3.20;1.90;;;;;;;10.23;100.00;99957.98;106073;1288;67073;-74
2022/10/20 10:27:23;;;;;;;2.50;1.50;;;;;;;10.31;100.00;99952.29;106054;1288;60998;-74
2022/10/20 10:29:51;;;;;;;3.50;2.10;;;;;;;10.34;100.00;99951.08;106047;1288;64951;-74
2022/10/20 10:32:25;;;;;;;4.00;1.80;;;;;;;10.39;100.00;99946.19;106055;1289;58846;-74
2022/10/20 10:35:02;;;;;;;4.80;2.10;;;;;;;10.47;100.00;99940.85;106061;1281;58822;-74
2022/10/20 10:37:30;;;;;;;3.30;2.70;;;;;;;10.57;100.00;99938.41;106071;1286;67057;-73
2022/10/20 10:39:57;;;;;;;3.20;2.60;;;;;;;10.60;100.00;99932.02;106053;1289;61066;-75
2022/10/20 10:42:45;;;;;;;4.80;2.50;;;;;;;10.63;100.00;99932.55;106048;1288;64415;-74
2022/10/20 10:45:45;;;;;;;4.60;2.70;;;;;;;10.70;100.00;99931.96;106076;1288;58936;-74
2022/10/20 10:48:23;;;;;;;2.80;2.00;;;;;;;10.78;100.00;99931.77;106073;1288;58932;-74
2022/10/20 10:50:57;;;;;;;2.50;2.20;;;;;;;10.82;100.00;99933.13;106054;1288;66988;-73
2022/10/20 10:53:51;;;;;;;2.50;2.20;;;;;;;10.89;100.00;99932.73;106093;1286;60034;-74
2022/10/20 10:56:36;;;;;;;4.20;3.80;;;;;;;10.97;100.00;99925.57;106046;1288;64080;-74
2022/10/20 10:59:10;;;;;;;3.30;2.30;;;;;;;11.03;100.00;99923.11;106046;1289;59241;-73
2022/10/20 11:02:02;;;;;;;3.50;2.30;;;;;;;11.05;100.00;99920.33;106085;1288;59187;-74
2022/10/20 11:04:31;;;;;;;3.80;2.80;;;;;;;11.00;100.00;99912.99;106072;1286;66747;-73
2022/10/20 11:07:36;;;;;;;3.60;2.60;;;;;;;10.96;100.00;99913.00;105709;1294;59720;-73
2022/10/20 11:10:26;;;;;;;4.80;3.00;;;;;;;10.97;100.00;99907.78;105471;1297;65024;-74
2022/10/20 11:13:10;;;;;;;4.30;3.40;;;;;;;10.98;100.00;99905.95;105470;1297;58932;-74
2022/10/20 11:15:53;;;;;;;4.30;3.20;;;;;;;11.04;100.00;99901.02;105442;1303;59026;-74
2022/10/20 11:18:38;;;;;;;5.20;2.90;;;;;;;11.14;100.00;99896.38;105452;1298;67039;-74
2022/10/20 11:21:20;;;;;;;4.10;3.30;;;;;;;11.22;100.00;99891.85;105455;1297;61052;-74
2022/10/20 11:23:49;;;;;;;3.50;3.20;;;;;;;11.20;100.00;99888.06;105484;1295;64050;-74
2022/10/20 11:26:22;;;;;;;7.00;4.00;;;;;;;11.14;100.00;99885.21;105471;1294;59374;-74
2022/10/20 11:28:54;;;;;;;6.20;3.10;;;;;;;11.12;100.00;99878.87;105452;1296;58949;-74
2022/10/20 11:31:21;;;;;;;5.50;3.60;;;;;;;11.13;100.00;99873.71;105200;1299;66069;-74